Time;durP1;ratioP1;P1;durP2;ratioP2;P2;SDS_P1;SDS_P2;PMS_P1;PMS_P2;Temp;Humidity;BMP_temperature;BMP_pressure;BME280_temperature;BME280_humidity;BME280_pressure;Samples;Min_cycle;Max_cycle;Signal;HPM_P1;HPM_P2
2023/06/04 00:00:05;;;;;;;2.13;1.00;;;;;;;13.47;100.00;101147.00;698060;28;828;-57
2023/06/04 00:00:25;;;;;;;1.83;0.90;;;;;;;13.45;100.00;101145.25;697550;28;1486;-58
2023/06/04 00:00:46;;;;;;;2.20;1.05;;;;;;;13.45;100.00;101141.75;698943;28;873;-57
2023/06/04 00:01:07;;;;;;;2.30;1.02;;;;;;;13.52;100.00;101140.81;700187;28;4354;-57
2023/06/04 00:01:27;;;;;;;2.17;1.10;;;;;;;13.49;100.00;101143.47;698456;28;1541;-57
2023/06/04 00:01:48;;;;;;;2.00;1.10;;;;;;;13.54;100.00;101139.06;696972;28;1182;-57
2023/06/04 00:02:09;;;;;;;2.30;1.00;;;;;;;13.57;100.00;101141.66;698014;28;1165;-57
2023/06/04 00:02:30;;;;;;;2.25;1.00;;;;;;;13.55;100.00;101140.78;696477;28;1480;-57
2023/06/04 00:02:50;;;;;;;2.25;1.00;;;;;;;13.52;100.00;101140.81;697554;28;836;-57
2023/06/04 00:03:10;;;;;;;2.83;1.20;;;;;;;13.47;100.00;101142.59;698100;28;812;-57
2023/06/04 00:03:32;;;;;;;2.63;1.00;;;;;;;13.46;100.00;101135.63;696557;28;1914;-57
2023/06/04 00:03:53;;;;;;;3.70;1.10;;;;;;;13.45;100.00;101134.75;697584;28;1074;-57
2023/06/04 00:04:13;;;;;;;2.50;1.03;;;;;;;13.47;100.00;101141.75;698722;28;4527;-56
2023/06/04 00:04:36;;;;;;;2.43;0.93;;;;;;;13.43;100.00;101140.88;699447;28;1488;-56
2023/06/04 00:04:56;;;;;;;1.90;0.95;;;;;;;13.42;100.00;101139.16;700200;28;812;-57
2023/06/04 00:05:16;;;;;;;2.33;1.03;;;;;;;13.46;100.00;101140.88;700384;28;1765;-57
2023/06/04 00:05:37;;;;;;;2.43;0.90;;;;;;;13.46;100.00;101140.88;699151;28;1565;-57
2023/06/04 00:05:57;;;;;;;2.20;1.00;;;;;;;13.45;100.00;101139.13;699421;28;1319;-58
2023/06/04 00:06:17;;;;;;;1.77;1.00;;;;;;;13.51;100.00;101138.19;699488;28;1315;-57
2023/06/04 00:06:40;;;;;;;2.00;1.00;;;;;;;13.47;100.00;101137.34;698854;28;1570;-57
2023/06/04 00:07:01;;;;;;;2.00;1.00;;;;;;;13.44;100.00;101137.38;700015;28;1344;-57
2023/06/04 00:07:23;;;;;;;2.50;1.30;;;;;;;13.41;100.00;101142.66;700301;28;4425;-57
2023/06/04 00:07:44;;;;;;;2.80;1.23;;;;;;;13.40;100.00;101146.16;700444;28;1203;-57
2023/06/04 00:08:04;;;;;;;2.03;1.00;;;;;;;13.36;100.00;101140.09;699247;28;966;-58
2023/06/04 00:08:25;;;;;;;2.65;1.00;;;;;;;13.33;100.00;101139.22;701210;28;1488;-57
2023/06/04 00:08:45;;;;;;;2.40;1.00;;;;;;;13.29;100.00;101140.97;703826;28;891;-57
2023/06/04 00:09:05;;;;;;;1.50;0.90;;;;;;;13.30;100.00;101137.47;703244;28;784;-57
2023/06/04 00:09:26;;;;;;;2.03;1.00;;;;;;;13.29;100.00;101141.88;701451;28;1459;-57
2023/06/04 00:09:46;;;;;;;2.80;1.10;;;;;;;13.27;100.00;101137.50;702175;28;1073;-57
2023/06/04 00:10:07;;;;;;;2.88;1.20;;;;;;;13.25;100.00;101142.78;702270;28;4379;-57
2023/06/04 00:10:27;;;;;;;2.22;1.05;;;;;;;13.25;100.00;101134.91;698870;28;1443;-57
2023/06/04 00:10:48;;;;;;;2.17;0.90;;;;;;;13.26;100.00;101141.91;700593;28;915;-59
2023/06/04 00:11:08;;;;;;;2.17;1.00;;;;;;;13.25;100.00;101134.00;700134;28;816;-57
2023/06/04 00:11:29;;;;;;;2.30;1.00;;;;;;;13.25;100.00;101136.63;699175;28;956;-57
2023/06/04 00:11:50;;;;;;;2.10;1.00;;;;;;;13.31;100.00;101141.00;700986;28;1097;-57
2023/06/04 00:12:10;;;;;;;1.73;0.90;;;;;;;13.34;100.00;101140.97;700938;28;781;-57
2023/06/04 00:12:30;;;;;;;2.50;1.00;;;;;;;13.32;100.00;101142.72;699311;28;1438;-57
2023/06/04 00:12:51;;;;;;;2.43;0.97;;;;;;;13.29;100.00;101139.25;701139;28;884;-57
2023/06/04 00:13:11;;;;;;;1.83;1.00;;;;;;;13.27;100.00;101135.75;699981;28;4535;-57
2023/06/04 00:13:31;;;;;;;1.80;0.90;;;;;;;13.32;100.00;101137.47;698603;28;1519;-58
2023/06/04 00:13:52;;;;;;;2.50;1.00;;;;;;;13.26;100.00;101134.03;700753;28;935;-57
2023/06/04 00:14:16;;;;;;;3.13;1.10;;;;;;;13.22;100.00;101137.56;701168;28;1330;-57
2023/06/04 00:14:36;;;;;;;2.08;1.00;;;;;;;13.16;100.00;101134.97;699486;28;1517;-57
2023/06/04 00:14:56;;;;;;;2.37;1.10;;;;;;;13.20;100.00;101135.81;701237;28;966;-57
2023/06/04 00:15:17;;;;;;;2.23;1.07;;;;;;;13.19;100.00;101137.56;699930;28;1170;-59
2023/06/04 00:15:37;;;;;;;2.17;1.10;;;;;;;13.22;100.00;101134.94;698541;28;1601;-58
2023/06/04 00:15:57;;;;;;;1.73;1.00;;;;;;;13.22;100.00;101131.41;701022;28;951;-57
2023/06/04 00:16:18;;;;;;;1.92;1.00;;;;;;;13.23;100.00;101138.41;698841;28;4372;-57
2023/06/04 00:16:38;;;;;;;2.20;1.10;;;;;;;13.23;100.00;101133.16;699332;28;1441;-57
2023/06/04 00:16:59;;;;;;;2.25;1.00;;;;;;;13.20;100.00;101134.06;701039;28;955;-57
2023/06/04 00:17:19;;;;;;;2.70;1.20;;;;;;;13.20;100.00;101134.06;700611;28;840;-57
2023/06/04 00:17:40;;;;;;;1.95;1.00;;;;;;;13.19;100.00;101134.06;699383;28;1537;-57
2023/06/04 00:18:00;;;;;;;1.77;0.97;;;;;;;13.17;100.00;101133.22;700016;28;1006;-55
2023/06/04 00:18:21;;;;;;;2.08;1.00;;;;;;;13.16;100.00;101136.72;701301;28;835;-57
2023/06/04 00:18:41;;;;;;;1.80;0.97;;;;;;;13.15;100.00;101132.34;698963;28;1033;-57
2023/06/04 00:19:02;;;;;;;2.42;1.00;;;;;;;13.10;100.00;101133.25;701163;28;916;-57
2023/06/04 00:19:23;;;;;;;2.20;1.00;;;;;;;13.10;100.00;101129.78;698714;28;4403;-57
2023/06/04 00:19:43;;;;;;;1.77;0.90;;;;;;;13.08;100.00;101140.28;698229;28;3187;-57
2023/06/04 00:20:04;;;;;;;2.20;0.90;;;;;;;13.09;100.00;101135.91;701209;28;932;-57
2023/06/04 00:20:24;;;;;;;5.00;1.17;;;;;;;13.09;100.00;101141.16;699537;28;1582;-57
2023/06/04 00:20:44;;;;;;;4.70;1.13;;;;;;;13.08;100.00;101128.91;699040;28;824;-58
2023/06/04 00:21:05;;;;;;;1.60;1.00;;;;;;;13.08;100.00;101135.03;700937;28;907;-57
2023/06/04 00:21:25;;;;;;;2.80;1.10;;;;;;;13.07;100.00;101132.41;696347;28;1486;-57
2023/06/04 00:21:46;;;;;;;2.03;1.00;;;;;;;13.09;100.00;101135.91;697566;28;907;-57
2023/06/04 00:22:07;;;;;;;2.30;1.00;;;;;;;13.06;100.00;101133.31;697750;28;4594;-56
2023/06/04 00:22:27;;;;;;;3.03;1.00;;;;;;;13.06;100.00;101134.16;699194;28;1466;-58
2023/06/04 00:22:48;;;;;;;3.00;1.10;;;;;;;13.06;100.00;101133.31;700532;28;947;-57
2023/06/04 00:23:08;;;;;;;2.70;1.00;;;;;;;13.07;100.00;101140.28;700324;28;1204;-57
2023/06/04 00:23:28;;;;;;;2.70;1.20;;;;;;;13.05;100.00;101135.03;699293;28;1987;-56
2023/06/04 00:23:49;;;;;;;2.85;1.10;;;;;;;13.02;100.00;101128.97;700130;28;868;-57
2023/06/04 00:24:12;;;;;;;1.70;0.87;;;;;;;13.13;100.00;101131.50;700981;28;777;-57
2023/06/04 00:24:32;;;;;;;1.90;1.08;;;;;;;13.19;100.00;101132.31;699380;28;1568;-58
2023/06/04 00:24:52;;;;;;;2.67;1.07;;;;;;;13.19;100.00;101136.69;700464;28;1152;-57
2023/06/04 00:25:13;;;;;;;2.80;1.10;;;;;;;13.17;100.00;101136.72;700274;28;4614;-57
2023/06/04 00:25:33;;;;;;;2.30;1.10;;;;;;;13.18;100.00;101134.94;699817;28;1454;-57
2023/06/04 00:25:54;;;;;;;2.30;1.10;;;;;;;13.15;100.00;101133.22;700552;28;924;-57
2023/06/04 00:26:14;;;;;;;1.80;1.00;;;;;;;13.14;100.00;101138.47;700975;28;951;-57
2023/06/04 00:26:38;;;;;;;2.30;1.00;;;;;;;13.10;100.00;101133.25;698670;28;1568;-56
2023/06/04 00:26:59;;;;;;;3.45;1.10;;;;;;;13.08;100.00;101134.16;700597;28;805;-56
2023/06/04 00:27:19;;;;;;;2.60;1.03;;;;;;;13.10;100.00;101137.66;700760;28;867;-57
2023/06/04 00:27:40;;;;;;;1.97;1.07;;;;;;;13.12;100.00;101128.00;696455;28;1567;-57
2023/06/04 00:28:00;;;;;;;2.33;1.00;;;;;;;13.11;100.00;101136.75;696985;28;1050;-57
2023/06/04 00:28:21;;;;;;;2.30;1.00;;;;;;;13.10;100.00;101135.88;697664;28;4334;-56
2023/06/04 00:28:41;;;;;;;1.92;1.00;;;;;;;13.08;100.00;101128.91;697209;28;1486;-57
2023/06/04 00:29:02;;;;;;;1.90;1.00;;;;;;;13.07;100.00;101133.28;697788;28;900;-56
2023/06/04 00:29:22;;;;;;;1.98;1.10;;;;;;;13.03;100.00;101128.06;693899;28;2114;-57
2023/06/04 00:29:45;;;;;;;2.07;1.00;;;;;;;13.03;100.00;101130.69;697311;28;1335;-57
2023/06/04 00:30:06;;;;;;;2.05;0.90;;;;;;;13.03;100.00;101135.94;697578;28;879;-56
2023/06/04 00:30:27;;;;;;;2.05;1.00;;;;;;;13.07;100.00;101135.03;697109;28;1471;-56
2023/06/04 00:30:47;;;;;;;2.13;1.00;;;;;;;13.07;100.00;101135.91;701006;28;867;-57
2023/06/04 00:31:08;;;;;;;2.70;1.07;;;;;;;13.07;100.00;101138.53;697012;28;4320;-56
2023/06/04 00:31:28;;;;;;;1.90;1.00;;;;;;;13.10;100.00;101135.03;696161;28;1483;-57
2023/06/04 00:31:48;;;;;;;1.47;1.00;;;;;;;13.09;100.00;101141.16;698035;28;927;-57
2023/06/04 00:32:09;;;;;;;2.17;1.05;;;;;;;13.08;100.00;101136.78;700389;28;911;-57
2023/06/04 00:32:29;;;;;;;2.10;1.00;;;;;;;13.06;100.00;101130.69;696220;28;1801;-57
2023/06/04 00:32:50;;;;;;;1.93;0.90;;;;;;;13.07;100.00;101135.91;695334;28;824;-57
2023/06/04 00:33:10;;;;;;;1.92;0.90;;;;;;;13.05;100.00;101139.44;694913;28;1074;-57
2023/06/04 00:33:30;;;;;;;2.30;1.10;;;;;;;13.02;100.00;101134.22;693741;28;1538;-56
2023/06/04 00:33:51;;;;;;;2.05;1.05;;;;;;;13.00;100.00;101135.97;695130;28;869;-56
2023/06/04 00:34:11;;;;;;;2.50;1.10;;;;;;;13.00;100.00;101141.22;694540;28;4551;-57
2023/06/04 00:34:31;;;;;;;2.28;1.00;;;;;;;12.96;100.00;101129.88;696120;28;1773;-57
2023/06/04 00:34:53;;;;;;;2.37;1.10;;;;;;;12.95;100.00;101136.00;700021;28;1088;-57
2023/06/04 00:35:14;;;;;;;2.00;1.08;;;;;;;12.95;100.00;101129.00;696160;28;1045;-55
2023/06/04 00:35:37;;;;;;;2.05;1.15;;;;;;;13.01;100.00;101137.72;696279;28;1511;-57
2023/06/04 00:35:57;;;;;;;2.53;1.10;;;;;;;13.03;100.00;101135.94;697669;28;809;-56
2023/06/04 00:36:18;;;;;;;2.53;1.08;;;;;;;13.01;100.00;101135.94;698315;28;927;-57
2023/06/04 00:36:39;;;;;;;2.20;1.10;;;;;;;12.99;100.00;101131.59;696083;28;1578;-56
2023/06/04 00:37:01;;;;;;;2.63;1.02;;;;;;;12.99;100.00;101139.47;697671;28;1287;-56
2023/06/04 00:37:22;;;;;;;2.25;0.98;;;;;;;12.98;100.00;101133.34;697201;28;4712;-56
2023/06/04 00:37:42;;;;;;;2.35;0.95;;;;;;;12.98;100.00;101137.75;694891;28;841;-57
2023/06/04 00:38:03;;;;;;;2.77;1.10;;;;;;;12.97;100.00;101136.84;694096;28;841;-56
2023/06/04 00:38:23;;;;;;;2.67;1.13;;;;;;;12.94;100.00;101135.16;694055;28;1503;-57
2023/06/04 00:38:44;;;;;;;2.70;1.00;;;;;;;12.99;100.00;101131.59;694646;28;785;-56
2023/06/04 00:39:04;;;;;;;3.72;1.10;;;;;;;12.94;100.00;101129.91;695431;28;1440;-56
2023/06/04 00:39:24;;;;;;;3.13;1.10;;;;;;;12.94;100.00;101137.75;696365;28;1486;-57
2023/06/04 00:39:45;;;;;;;3.37;1.00;;;;;;;12.93;100.00;101132.50;700495;28;907;-56
2023/06/04 00:40:06;;;;;;;3.65;1.02;;;;;;;12.92;100.00;101134.28;699562;28;4387;-55
2023/06/04 00:40:26;;;;;;;1.75;0.90;;;;;;;12.93;100.00;101136.00;698771;28;1513;-57
2023/06/04 00:40:46;;;;;;;1.53;0.90;;;;;;;12.89;100.00;101131.66;700658;28;923;-57
2023/06/04 00:41:07;;;;;;;2.33;0.95;;;;;;;12.88;100.00;101135.16;700722;28;895;-56
2023/06/04 00:41:28;;;;;;;2.97;1.07;;;;;;;12.92;100.00;101129.03;699332;28;1442;-57
2023/06/04 00:41:48;;;;;;;2.88;1.20;;;;;;;12.94;100.00;101132.53;697517;28;999;-57
2023/06/04 00:42:08;;;;;;;1.90;1.00;;;;;;;12.94;100.00;101135.16;698494;28;5276;-56
2023/06/04 00:42:29;;;;;;;1.77;0.90;;;;;;;12.94;100.00;101135.16;696749;28;1440;-57
2023/06/04 00:42:49;;;;;;;2.17;1.00;;;;;;;12.93;100.00;101136.00;698332;28;923;-57
2023/06/04 00:43:10;;;;;;;2.40;1.10;;;;;;;12.92;100.00;101131.66;697464;28;4394;-57
2023/06/04 00:43:31;;;;;;;2.00;1.00;;;;;;;12.91;100.00;101136.91;699728;28;2017;-57
2023/06/04 00:43:55;;;;;;;2.15;1.00;;;;;;;12.90;100.00;101135.16;697823;28;813;-57
2023/06/04 00:44:16;;;;;;;2.78;1.20;;;;;;;12.89;100.00;101134.28;698430;28;1454;-56
2023/06/04 00:44:37;;;;;;;2.30;1.00;;;;;;;12.88;100.00;101137.78;696912;28;965;-57
2023/06/04 00:44:58;;;;;;;2.37;0.97;;;;;;;12.87;100.00;101136.03;698283;28;919;-57
2023/06/04 00:45:20;;;;;;;2.25;1.00;;;;;;;12.86;100.00;101136.94;698515;28;1759;-57
2023/06/04 00:45:41;;;;;;;3.20;1.08;;;;;;;12.86;100.00;101136.94;699202;28;1546;-56
2023/06/04 00:46:05;;;;;;;3.05;1.10;;;;;;;12.86;100.00;101138.69;700864;28;833;-56
2023/06/04 00:46:26;;;;;;;1.70;1.00;;;;;;;12.85;100.00;101137.81;696539;28;6220;-57
2023/06/04 00:46:47;;;;;;;2.00;1.10;;;;;;;12.84;100.00;101138.69;696689;28;1154;-57
2023/06/04 00:47:07;;;;;;;2.17;1.05;;;;;;;12.84;100.00;101135.22;697640;28;864;-57
2023/06/04 00:47:28;;;;;;;2.43;1.13;;;;;;;12.83;100.00;101143.97;696075;28;1599;-57
2023/06/04 00:47:49;;;;;;;2.40;1.10;;;;;;;12.81;100.00;101141.34;696696;28;843;-57
2023/06/04 00:48:09;;;;;;;2.47;1.10;;;;;;;12.83;100.00;101136.09;695678;28;1230;-57
2023/06/04 00:48:30;;;;;;;2.38;1.10;;;;;;;12.80;100.00;101129.09;696339;28;1504;-57
2023/06/04 00:48:52;;;;;;;3.00;1.17;;;;;;;12.80;100.00;101138.72;697332;28;1446;-57
2023/06/04 00:49:12;;;;;;;2.40;1.20;;;;;;;12.78;100.00;101136.13;694088;28;4514;-56
2023/06/04 00:49:33;;;;;;;2.10;1.10;;;;;;;12.76;100.00;101135.25;694471;28;1472;-57
2023/06/04 00:49:57;;;;;;;2.17;1.10;;;;;;;12.75;100.00;101142.25;693414;28;805;-56
2023/06/04 00:50:20;;;;;;;2.55;1.02;;;;;;;12.75;100.00;101130.88;693649;28;1007;-56
2023/06/04 00:50:41;;;;;;;2.33;1.00;;;;;;;12.73;100.00;101138.75;695039;28;1536;-57
2023/06/04 00:51:01;;;;;;;2.33;1.10;;;;;;;12.72;100.00;101137.03;699782;28;726;-57
2023/06/04 00:51:22;;;;;;;2.80;1.10;;;;;;;12.67;100.00;101135.28;700681;28;1277;-56
2023/06/04 00:51:43;;;;;;;3.05;1.10;;;;;;;12.66;100.00;101137.06;695690;28;1506;-56
2023/06/04 00:52:05;;;;;;;2.67;1.10;;;;;;;12.65;100.00;101137.06;695186;28;4409;-56
2023/06/04 00:52:25;;;;;;;2.63;1.00;;;;;;;12.65;100.00;101137.06;694287;28;1558;-57
2023/06/04 00:52:47;;;;;;;2.40;1.10;;;;;;;12.63;100.00;101134.47;695266;28;1344;-57
2023/06/04 00:53:08;;;;;;;1.90;1.00;;;;;;;12.63;100.00;101139.72;693751;28;1239;-57
2023/06/04 00:53:28;;;;;;;2.10;1.05;;;;;;;12.60;100.00;101135.34;694065;28;1550;-57
2023/06/04 00:53:50;;;;;;;2.23;1.00;;;;;;;12.61;100.00;101133.56;697876;28;1035;-57
2023/06/04 00:54:12;;;;;;;2.50;1.10;;;;;;;12.62;100.00;101144.97;696405;28;1565;-57
2023/06/04 00:54:33;;;;;;;2.20;1.10;;;;;;;12.59;100.00;101141.47;695059;28;1632;-57
2023/06/04 00:54:54;;;;;;;2.63;1.10;;;;;;;12.60;100.00;101135.34;699025;28;836;-57
2023/06/04 00:55:17;;;;;;;2.95;1.02;;;;;;;12.58;100.00;101133.59;700285;28;4319;-57
2023/06/04 00:55:38;;;;;;;2.72;1.00;;;;;;;12.57;100.00;101138.00;699176;28;1572;-57
2023/06/04 00:55:58;;;;;;;2.05;1.00;;;;;;;12.57;100.00;101135.38;700289;28;949;-56
2023/06/04 00:56:19;;;;;;;2.13;1.10;;;;;;;12.56;100.00;101141.47;700463;28;841;-57
2023/06/04 00:56:39;;;;;;;2.65;1.13;;;;;;;12.56;100.00;101143.25;700216;28;1680;-57
2023/06/04 00:57:00;;;;;;;3.83;1.27;;;;;;;12.56;100.00;101143.25;700919;28;1048;-57
2023/06/04 00:57:22;;;;;;;3.63;1.20;;;;;;;12.56;100.00;101133.63;703604;28;1572;-57
2023/06/04 00:57:42;;;;;;;2.28;1.00;;;;;;;12.57;100.00;101137.09;701429;28;1459;-57
2023/06/04 00:58:06;;;;;;;2.55;1.10;;;;;;;12.56;100.00;101136.25;704205;28;983;-57
2023/06/04 00:58:26;;;;;;;2.70;1.20;;;;;;;12.53;100.00;101132.75;696417;28;4612;-57
2023/06/04 00:58:47;;;;;;;1.87;1.00;;;;;;;12.55;100.00;101139.72;692125;28;1327;-57
2023/06/04 00:59:08;;;;;;;1.75;1.05;;;;;;;12.52;100.00;101139.75;692228;28;1054;-57
2023/06/04 00:59:32;;;;;;;2.15;1.02;;;;;;;12.50;100.00;101133.66;691403;28;1589;-57
2023/06/04 00:59:53;;;;;;;2.88;1.20;;;;;;;12.49;100.00;101134.53;692641;28;853;-57
2023/06/04 01:00:14;;;;;;;2.30;1.10;;;;;;;12.48;100.00;101138.03;692143;28;758;-56
2023/06/04 01:00:34;;;;;;;2.00;1.10;;;;;;;12.47;100.00;101136.28;697214;28;2002;-57
2023/06/04 01:00:57;;;;;;;2.03;1.20;;;;;;;12.47;100.00;101138.91;701435;28;872;-57
2023/06/04 01:01:34;;;;;;;2.03;1.08;;;;;;;12.47;100.00;101138.91;699794;28;4429;-56
2023/06/04 01:02:02;;;;;;;2.20;1.08;;;;;;;12.47;100.00;101135.41;696987;28;1204;-57
2023/06/04 01:02:25;;;;;;;1.80;1.08;;;;;;;12.51;100.00;101139.78;695432;28;1410;-57
2023/06/04 01:02:51;;;;;;;2.30;1.10;;;;;;;12.51;100.00;101148.50;695569;28;872;-58
2023/06/04 01:03:17;;;;;;;2.22;1.02;;;;;;;12.49;100.00;101139.78;695404;28;1008;-57
2023/06/04 01:03:45;;;;;;;2.83;1.20;;;;;;;12.48;100.00;101137.16;696020;28;1936;-57
2023/06/04 01:04:12;;;;;;;2.47;1.10;;;;;;;12.45;100.00;101138.06;699969;28;4296;-56
2023/06/04 01:04:39;;;;;;;2.08;1.08;;;;;;;12.45;100.00;101143.28;694820;28;1436;-57
2023/06/04 01:05:11;;;;;;;1.92;1.00;;;;;;;12.43;100.00;101140.69;696569;28;829;-56
2023/06/04 01:05:48;;;;;;;2.80;1.40;;;;;;;12.41;100.00;101138.94;695709;28;1613;-57
2023/06/04 01:06:22;;;;;;;2.78;1.00;;;;;;;12.39;100.00;101138.06;698165;28;2203;-56
2023/06/04 01:06:45;;;;;;;2.17;1.20;;;;;;;12.38;100.00;101144.22;698922;28;2135;-57
2023/06/04 01:07:08;;;;;;;2.65;1.10;;;;;;;12.37;100.00;101139.84;700485;28;4321;-57
2023/06/04 01:07:30;;;;;;;2.45;1.00;;;;;;;12.37;100.00;101139.84;698742;28;1543;-56
2023/06/04 01:07:50;;;;;;;1.45;1.00;;;;;;;12.37;100.00;101139.84;698210;28;1208;-56
2023/06/04 01:08:11;;;;;;;1.52;1.00;;;;;;;12.35;100.00;101139.84;698074;28;938;-56
2023/06/04 01:08:31;;;;;;;2.47;1.13;;;;;;;12.34;100.00;101139.84;695609;28;1475;-56
2023/06/04 01:08:54;;;;;;;3.60;1.20;;;;;;;12.34;100.00;101139.84;695803;28;1059;-56
2023/06/04 01:09:15;;;;;;;2.38;1.00;;;;;;;12.35;100.00;101144.19;692719;28;1234;-56
2023/06/04 01:09:37;;;;;;;1.98;1.02;;;;;;;12.34;100.00;101134.63;691669;28;1626;-56
2023/06/04 01:09:57;;;;;;;2.05;1.00;;;;;;;12.33;100.00;101143.34;693079;28;899;-56
2023/06/04 01:10:18;;;;;;;3.03;1.00;;;;;;;12.34;100.00;101145.97;693028;28;4465;-56
2023/06/04 01:10:51;;;;;;;3.22;1.05;;;;;;;12.32;100.00;101145.09;694276;28;1440;-56
2023/06/04 01:11:11;;;;;;;1.95;1.00;;;;;;;12.31;100.00;101142.47;693227;28;912;-56
2023/06/04 01:11:35;;;;;;;2.23;1.00;;;;;;;12.30;100.00;101141.59;694207;28;1492;-57
2023/06/04 01:12:01;;;;;;;1.98;1.00;;;;;;;12.28;100.00;101135.50;698270;28;845;-56
2023/06/04 01:12:22;;;;;;;1.90;1.10;;;;;;;12.27;100.00;101142.50;700003;28;1037;-58
2023/06/04 01:12:43;;;;;;;2.22;1.10;;;;;;;12.25;100.00;101139.00;699953;28;1132;-58
2023/06/04 01:13:03;;;;;;;2.35;1.15;;;;;;;12.24;100.00;101139.03;701468;28;931;-59
2023/06/04 01:13:24;;;;;;;2.97;1.50;;;;;;;12.22;100.00;101136.38;700563;28;4412;-58
2023/06/04 01:13:47;;;;;;;2.28;1.30;;;;;;;12.25;100.00;101140.75;700188;28;813;-59
2023/06/04 01:14:09;;;;;;;2.67;1.08;;;;;;;12.24;100.00;101141.66;700561;28;1018;-59
2023/06/04 01:14:33;;;;;;;3.20;1.15;;;;;;;12.22;100.00;101139.00;700031;28;1506;-59
2023/06/04 01:14:53;;;;;;;2.53;1.02;;;;;;;12.21;100.00;101134.66;701328;28;1070;-56
2023/06/04 01:15:14;;;;;;;2.72;1.10;;;;;;;12.20;100.00;101143.41;701121;28;816;-57
2023/06/04 01:15:35;;;;;;;1.87;1.00;;;;;;;12.21;100.00;101139.91;699908;28;1516;-56
2023/06/04 01:15:55;;;;;;;2.17;1.10;;;;;;;12.18;100.00;101142.50;700302;28;3306;-57
2023/06/04 01:16:16;;;;;;;2.57;1.10;;;;;;;12.17;100.00;101142.53;700300;28;4499;-56
2023/06/04 01:16:47;;;;;;;2.42;1.17;;;;;;;12.16;100.00;101146.03;699161;28;1477;-57
2023/06/04 01:17:08;;;;;;;2.63;1.20;;;;;;;12.13;100.00;101143.41;700911;28;944;-56
2023/06/04 01:17:37;;;;;;;3.20;1.20;;;;;;;12.11;100.00;101145.19;696492;28;1490;-57
2023/06/04 01:18:02;;;;;;;3.92;1.20;;;;;;;12.08;100.00;101146.06;694861;28;1451;-57
2023/06/04 01:18:27;;;;;;;3.65;1.40;;;;;;;12.04;100.00;101139.09;698398;28;932;-58
2023/06/04 01:18:51;;;;;;;3.42;1.13;;;;;;;12.05;100.00;101148.69;698684;28;956;-57
2023/06/04 01:19:32;;;;;;;2.80;1.10;;;;;;;12.05;100.00;101140.84;698046;28;4631;-57
2023/06/04 01:20:20;;;;;;;3.55;1.25;;;;;;;12.05;100.00;101144.31;700615;28;924;-58
2023/06/04 01:20:44;;;;;;;2.03;1.00;;;;;;;12.02;100.00;101144.34;699080;28;1261;-57
2023/06/04 01:21:08;;;;;;;1.85;1.00;;;;;;;12.07;100.00;101137.34;700787;28;1085;-57
2023/06/04 01:21:35;;;;;;;1.73;1.00;;;;;;;12.07;100.00;101146.94;697020;28;1582;-55
2023/06/04 01:22:02;;;;;;;2.88;1.20;;;;;;;12.02;100.00;101148.72;697684;28;892;-57
2023/06/04 01:22:31;;;;;;;2.10;0.95;;;;;;;11.99;100.00;101148.69;692774;28;4506;-57
2023/06/04 01:22:51;;;;;;;1.73;1.00;;;;;;;11.98;100.00;101144.34;694802;28;1196;-56
2023/06/04 01:23:28;;;;;;;2.33;1.20;;;;;;;11.98;100.00;101149.59;695446;28;1276;-56
2023/06/04 01:23:58;;;;;;;2.72;1.20;;;;;;;11.97;100.00;101148.69;697587;28;1580;-56
2023/06/04 01:24:22;;;;;;;1.77;1.10;;;;;;;11.94;100.00;101146.09;699312;28;1105;-56
2023/06/04 01:24:48;;;;;;;1.98;1.10;;;;;;;11.91;100.00;101148.69;698551;28;1483;-56
2023/06/04 01:25:45;;;;;;;2.70;1.15;;;;;;;11.89;100.00;101147.81;699245;28;4265;-55
2023/06/04 01:26:06;;;;;;;2.50;1.13;;;;;;;11.87;100.00;101149.59;695855;28;2344;-56
2023/06/04 01:26:28;;;;;;;3.50;1.30;;;;;;;11.87;100.00;101146.97;699452;28;1543;-56
2023/06/04 01:26:51;;;;;;;2.92;1.30;;;;;;;11.84;100.00;101152.22;701368;28;971;-54
2023/06/04 01:27:12;;;;;;;2.70;1.13;;;;;;;11.83;100.00;101148.72;700919;28;3259;-56
2023/06/04 01:27:35;;;;;;;2.70;1.00;;;;;;;11.80;100.00;101148.72;696973;28;1634;-56
2023/06/04 01:27:58;;;;;;;1.52;0.93;;;;;;;11.81;100.00;101146.97;694452;28;1112;-55
2023/06/04 01:28:20;;;;;;;2.03;1.15;;;;;;;11.77;100.00;101148.75;693673;28;4525;-56
2023/06/04 01:28:41;;;;;;;2.85;1.20;;;;;;;11.76;100.00;101150.47;694298;28;1707;-56
2023/06/04 01:29:02;;;;;;;3.20;1.20;;;;;;;11.78;100.00;101146.97;692785;28;1239;-56
2023/06/04 01:29:23;;;;;;;2.37;1.10;;;;;;;11.76;100.00;101157.47;692096;28;1702;-56
2023/06/04 01:29:44;;;;;;;2.20;1.15;;;;;;;11.77;100.00;101156.59;692692;28;1567;-57
2023/06/04 01:30:06;;;;;;;2.78;1.27;;;;;;;11.75;100.00;101151.38;696310;28;887;-56
2023/06/04 01:30:32;;;;;;;3.45;1.20;;;;;;;11.74;100.00;101154.84;696180;28;1610;-55
2023/06/04 01:30:56;;;;;;;2.35;1.10;;;;;;;11.72;100.00;101150.47;700049;28;935;-56
2023/06/04 01:31:16;;;;;;;2.22;1.10;;;;;;;11.73;100.00;101152.22;698983;28;4414;-56
2023/06/04 01:31:37;;;;;;;2.80;1.30;;;;;;;11.72;100.00;101146.09;699987;28;1625;-56
2023/06/04 01:31:58;;;;;;;3.27;1.23;;;;;;;11.70;100.00;101152.22;698297;28;884;-55
2023/06/04 01:32:19;;;;;;;2.15;1.20;;;;;;;11.69;100.00;101150.50;697116;28;1301;-56
2023/06/04 01:32:39;;;;;;;1.87;1.10;;;;;;;11.70;100.00;101152.22;696849;28;1348;-56
2023/06/04 01:33:01;;;;;;;1.73;1.00;;;;;;;11.69;100.00;101145.25;698397;28;1128;-56
2023/06/04 01:33:22;;;;;;;1.98;1.00;;;;;;;11.68;100.00;101152.22;695347;28;888;-56
2023/06/04 01:33:42;;;;;;;1.45;0.90;;;;;;;11.67;100.00;101145.25;690668;28;1508;-56
2023/06/04 01:34:02;;;;;;;1.77;1.00;;;;;;;11.64;100.00;101147.00;696061;28;797;-56
2023/06/04 01:34:23;;;;;;;2.43;1.10;;;;;;;11.64;100.00;101149.63;697407;28;4370;-56
2023/06/04 01:34:45;;;;;;;2.70;1.10;;;;;;;11.63;100.00;101145.25;696637;28;1621;-57
2023/06/04 01:35:11;;;;;;;2.30;1.20;;;;;;;11.61;100.00;101142.63;695296;28;1051;-57
2023/06/04 01:35:31;;;;;;;3.03;1.20;;;;;;;11.59;100.00;101149.63;694859;28;1615;-56
2023/06/04 01:35:52;;;;;;;2.70;1.10;;;;;;;11.59;100.00;101147.88;695798;28;797;-56
2023/06/04 01:36:12;;;;;;;1.98;0.90;;;;;;;11.60;100.00;101146.13;692854;28;1031;-56
2023/06/04 01:36:33;;;;;;;2.60;1.40;;;;;;;11.59;100.00;101145.25;690757;28;1449;-54
2023/06/04 01:36:53;;;;;;;2.35;1.30;;;;;;;11.58;100.00;101148.75;693175;28;880;-56
2023/06/04 01:37:13;;;;;;;2.17;1.07;;;;;;;11.58;100.00;101143.50;695181;28;4572;-55
2023/06/04 01:37:34;;;;;;;2.57;1.20;;;;;;;11.58;100.00;101148.75;696417;28;1504;-57
2023/06/04 01:37:55;;;;;;;2.30;1.10;;;;;;;11.55;100.00;101145.28;698626;28;1081;-56
2023/06/04 01:38:16;;;;;;;2.22;1.20;;;;;;;11.52;100.00;101143.53;701190;28;1051;-57
2023/06/04 01:38:36;;;;;;;2.85;1.27;;;;;;;11.50;100.00;101150.50;695880;28;1581;-56
2023/06/04 01:38:58;;;;;;;2.50;1.20;;;;;;;11.52;100.00;101142.63;698287;28;812;-56
2023/06/04 01:39:18;;;;;;;2.80;1.30;;;;;;;11.72;100.00;101151.34;698497;28;1348;-54
2023/06/04 01:39:38;;;;;;;3.20;1.20;;;;;;;11.85;100.00;101149.59;696356;28;1460;-57
2023/06/04 01:40:02;;;;;;;3.17;1.50;;;;;;;11.90;100.00;101150.44;695815;28;1214;-55
2023/06/04 01:40:23;;;;;;;3.38;1.63;;;;;;;11.89;100.00;101148.72;698754;28;4585;-56
2023/06/04 01:40:45;;;;;;;2.17;1.10;;;;;;;11.85;100.00;101152.22;699122;28;1537;-56
2023/06/04 01:41:05;;;;;;;2.30;1.10;;;;;;;11.79;100.00;101153.97;697585;28;1179;-56
2023/06/04 01:41:26;;;;;;;2.58;1.20;;;;;;;11.74;100.00;101148.72;691724;28;1059;-56
2023/06/04 01:41:46;;;;;;;2.17;1.10;;;;;;;11.68;100.00;101152.22;693187;28;936;-57
2023/06/04 01:42:07;;;;;;;2.45;1.10;;;;;;;11.63;100.00;101156.63;694469;28;5229;-56
2023/06/04 01:42:28;;;;;;;2.10;1.02;;;;;;;11.56;100.00;101149.63;697372;28;914;-56
2023/06/04 01:42:49;;;;;;;2.03;1.10;;;;;;;11.52;100.00;101153.09;695315;28;873;-56
2023/06/04 01:43:10;;;;;;;2.28;1.27;;;;;;;11.43;100.00;101154.00;698339;28;4364;-56
2023/06/04 01:43:34;;;;;;;3.30;1.30;;;;;;;11.37;100.00;101151.41;699891;28;1949;-56
2023/06/04 01:43:55;;;;;;;2.10;1.00;;;;;;;11.34;100.00;101154.88;697661;28;949;-56